West Orange, Texas
Current Conditions -  °F | °C
As of 5:55 PM on Wednesday 22 Oct 2014 (Local Time) from KORG Reporting Station
Clear Clear  
Wind Chill: 77°   Ceiling: Unl
Heat Index: 79°   Visibility: 10mi
Dew Point: 57°   Wind: 6mph
Humidity: 50%   Direction: 40°NE
Pressure: 30.04"   Gusts: NA
Location:  30.1136°N, 93.814°W
Report Text: KORG 222255Z AUTO 04005KT 10SM CLR 25/14 A3004 RMK AO2 T02500138
Loading
Personal Weather Stations






























Interactive Weather Map
Tropical Storm Tracking
New forecast layout! Learn more

10-Day Weather Forecast

Advertisements
Track Severe Weather on mobile